Time;durP1;ratioP1;P1;durP2;ratioP2;P2;SDS_P1;SDS_P2;PMS_P1;PMS_P2;Temp;Humidity;BMP_temperature;BMP_pressure;BME280_temperature;BME280_humidity;BME280_pressure;Samples;Min_cycle;Max_cycle;Signal;HPM_P1;HPM_P2
2021/11/25 00:00:06;;;;;;;6.18;3.03;;;;;;;-148.56;100.00;61375.16;4996692;28;20638;-30
2021/11/25 00:02:32;;;;;;;4.50;2.88;;;;;;;-148.56;100.00;61375.16;5011300;28;20041;-34
2021/11/25 00:04:57;;;;;;;4.93;2.90;;;;;;;-148.56;100.00;61375.16;4993925;28;22146;-31
2021/11/25 00:07:23;;;;;;;4.68;2.72;;;;;;;-148.56;100.00;61375.16;5000629;28;20414;-30
2021/11/25 00:09:48;;;;;;;5.82;2.60;;;;;;;-148.56;100.00;61375.16;5001969;28;20055;-30
2021/11/25 00:12:14;;;;;;;5.97;2.38;;;;;;;-148.56;100.00;61375.16;5001358;28;20063;-33
2021/11/25 00:14:39;;;;;;;3.80;2.40;;;;;;;-148.56;100.00;61375.16;5001326;28;20025;-29
2021/11/25 00:17:05;;;;;;;4.72;2.40;;;;;;;-148.56;100.00;61375.16;4999702;28;20673;-30
2021/11/25 00:19:30;;;;;;;4.93;2.53;;;;;;;-148.56;100.00;61375.16;4993615;28;20515;-30
2021/11/25 00:21:56;;;;;;;5.22;2.58;;;;;;;-148.56;100.00;61375.16;4997027;28;20642;-30
2021/11/25 00:24:21;;;;;;;4.72;2.40;;;;;;;-148.56;100.00;61375.16;5003097;28;20029;-30
2021/11/25 00:26:46;;;;;;;5.13;2.80;;;;;;;-148.56;100.00;61375.16;4998125;28;20037;-31
2021/11/25 00:29:12;;;;;;;4.65;2.38;;;;;;;-148.56;100.00;61375.16;5006386;28;20052;-32
2021/11/25 00:31:37;;;;;;;6.07;2.40;;;;;;;-148.56;100.00;61375.16;5004645;28;20032;-30
2021/11/25 00:34:03;;;;;;;3.33;2.10;;;;;;;-148.56;100.00;61375.16;5000108;28;20030;-30
2021/11/25 00:36:28;;;;;;;4.68;2.50;;;;;;;-148.56;100.00;61375.16;5003136;28;20026;-33
2021/11/25 00:38:53;;;;;;;3.80;2.40;;;;;;;-148.56;100.00;61375.16;5014919;28;20329;-31
2021/11/25 00:41:19;;;;;;;3.65;2.10;;;;;;;-148.56;100.00;61375.16;4996961;28;20513;-31
2021/11/25 00:43:45;;;;;;;3.50;2.03;;;;;;;-148.56;100.00;61375.16;4999108;28;20029;-33
2021/11/25 00:46:10;;;;;;;5.78;2.40;;;;;;;-148.56;100.00;61375.16;5002310;28;20025;-35
2021/11/25 00:48:35;;;;;;;4.75;2.50;;;;;;;-148.56;100.00;61375.16;5001264;28;20033;-31
2021/11/25 00:51:01;;;;;;;3.33;2.28;;;;;;;-148.56;100.00;61375.16;5003004;28;20766;-31
2021/11/25 00:53:26;;;;;;;3.58;2.05;;;;;;;-148.56;100.00;61375.16;5017361;28;20111;-34
2021/11/25 00:55:52;;;;;;;5.65;2.20;;;;;;;-148.56;100.00;61375.16;5001912;28;20051;-33
2021/11/25 00:58:20;;;;;;;3.67;2.10;;;;;;;-148.56;100.00;61375.16;4994646;28;20038;-31
2021/11/25 01:00:45;;;;;;;4.25;2.40;;;;;;;-148.56;100.00;61375.16;4995398;28;20025;-35
2021/11/25 01:03:11;;;;;;;6.30;2.42;;;;;;;-148.56;100.00;61375.16;4994544;28;20384;-32
2021/11/25 01:05:36;;;;;;;4.32;2.22;;;;;;;-148.56;100.00;61375.16;4996626;28;20087;-29
2021/11/25 01:08:02;;;;;;;3.35;2.08;;;;;;;-148.56;100.00;61375.16;5000054;28;20029;-32
2021/11/25 01:10:27;;;;;;;2.63;2.08;;;;;;;-148.56;100.00;61375.16;4995677;28;20347;-30
2021/11/25 01:12:53;;;;;;;3.33;2.10;;;;;;;-148.56;100.00;61375.16;4991251;28;20025;-32
2021/11/25 01:15:20;;;;;;;5.63;2.08;;;;;;;-148.56;100.00;61375.16;4997046;28;20017;-30
2021/11/25 01:17:45;;;;;;;4.97;2.10;;;;;;;-148.56;100.00;61375.16;4997072;28;20068;-29
2021/11/25 01:20:16;;;;;;;3.58;2.00;;;;;;;-148.56;100.00;61375.16;5010775;28;20029;-30
2021/11/25 01:22:42;;;;;;;4.28;1.98;;;;;;;-148.56;100.00;61375.16;4997608;28;20030;-34
2021/11/25 01:25:08;;;;;;;3.40;1.98;;;;;;;-148.56;100.00;61375.16;5010671;28;20585;-31
2021/11/25 01:27:34;;;;;;;4.45;2.10;;;;;;;-148.56;100.00;61375.16;4988406;28;20033;-33
2021/11/25 01:29:59;;;;;;;3.22;2.10;;;;;;;-148.56;100.00;61375.16;5001720;28;20288;-31
2021/11/25 01:32:24;;;;;;;3.60;2.00;;;;;;;-148.56;100.00;61375.16;5006248;28;20036;-32
2021/11/25 01:34:50;;;;;;;3.63;2.10;;;;;;;-148.56;100.00;61375.16;5006508;28;20030;-29
2021/11/25 01:37:15;;;;;;;2.42;1.92;;;;;;;-148.56;100.00;61375.16;4996281;28;20028;-30
2021/11/25 01:39:41;;;;;;;2.67;1.83;;;;;;;-148.56;100.00;61375.16;4999016;28;20677;-31
2021/11/25 01:42:06;;;;;;;3.95;2.10;;;;;;;-148.56;100.00;61375.16;4998701;28;20084;-31
2021/11/25 01:44:32;;;;;;;3.30;1.95;;;;;;;-148.56;100.00;61375.16;5008401;28;20029;-30
2021/11/25 01:47:01;;;;;;;3.03;1.95;;;;;;;-148.56;100.00;61375.16;5005254;28;20083;-31
2021/11/25 01:49:27;;;;;;;3.05;1.90;;;;;;;-148.56;100.00;61375.16;5022754;28;20034;-32
2021/11/25 01:51:52;;;;;;;2.95;1.80;;;;;;;-148.56;100.00;61375.16;5006415;28;20029;-33
2021/11/25 01:54:17;;;;;;;5.32;1.80;;;;;;;-148.56;100.00;61375.16;5006324;28;20029;-34
2021/11/25 01:56:43;;;;;;;3.20;1.88;;;;;;;-148.56;100.00;61375.16;4999953;28;20493;-30
2021/11/25 01:59:09;;;;;;;5.65;2.08;;;;;;;-148.56;100.00;61375.16;4988050;28;20144;-33
2021/11/25 02:01:34;;;;;;;3.15;2.05;;;;;;;-148.56;100.00;61375.16;4998216;28;20036;-31
2021/11/25 02:04:01;;;;;;;2.38;1.60;;;;;;;-148.56;100.00;61375.16;4996524;28;20652;-31
2021/11/25 02:06:26;;;;;;;2.92;1.80;;;;;;;-148.56;100.00;61375.16;5003009;28;20512;-29
2021/11/25 02:08:51;;;;;;;3.38;1.85;;;;;;;-148.56;100.00;61375.16;5006519;28;20033;-31
2021/11/25 02:11:17;;;;;;;2.38;1.52;;;;;;;-148.56;100.00;61375.16;5006143;28;20029;-34
2021/11/25 02:13:42;;;;;;;4.85;1.67;;;;;;;-148.56;100.00;61375.16;5004828;28;20030;-30
2021/11/25 02:16:08;;;;;;;1.70;1.40;;;;;;;-148.56;100.00;61375.16;5001921;28;20036;-34
2021/11/25 02:18:33;;;;;;;3.75;2.00;;;;;;;-148.56;100.00;61375.16;5016395;28;20021;-29
2021/11/25 02:21:00;;;;;;;2.38;1.90;;;;;;;-148.56;100.00;61375.16;4999881;28;20695;-30
2021/11/25 02:23:25;;;;;;;2.92;2.17;;;;;;;-148.56;100.00;61375.16;5021727;28;20030;-31
2021/11/25 02:25:51;;;;;;;2.83;1.50;;;;;;;-148.56;100.00;61375.16;5002939;28;20661;-30
2021/11/25 02:28:20;;;;;;;2.63;1.80;;;;;;;-148.56;100.00;61375.16;5006569;28;20036;-31
2021/11/25 02:30:46;;;;;;;2.60;1.90;;;;;;;-148.56;100.00;61375.16;5002781;28;20107;-30
2021/11/25 02:33:11;;;;;;;3.30;1.70;;;;;;;-148.56;100.00;61375.16;5003387;28;20923;-32
2021/11/25 02:35:39;;;;;;;2.55;1.65;;;;;;;-148.56;100.00;61375.16;5004175;28;20018;-33
2021/11/25 02:38:04;;;;;;;2.70;1.70;;;;;;;-148.56;100.00;61375.16;5018648;28;20529;-30
2021/11/25 02:40:38;;;;;;;2.28;1.60;;;;;;;-148.56;100.00;61375.16;5004112;28;20044;-30
2021/11/25 02:43:11;;;;;;;2.25;1.60;;;;;;;-148.56;100.00;61375.16;5006518;28;20034;-32
2021/11/25 02:45:49;;;;;;;4.35;1.95;;;;;;;-148.56;100.00;61375.16;5003018;28;20386;-30
2021/11/25 02:48:15;;;;;;;3.83;1.90;;;;;;;-148.56;100.00;61375.16;5018326;28;20021;-32
2021/11/25 02:50:40;;;;;;;2.38;1.70;;;;;;;-148.56;100.00;61375.16;5002350;28;20044;-34
2021/11/25 02:53:06;;;;;;;1.92;1.67;;;;;;;-148.56;100.00;61375.16;5003860;28;20022;-29
2021/11/25 02:55:32;;;;;;;2.92;1.80;;;;;;;-148.56;100.00;61375.16;5000035;28;20532;-30
2021/11/25 02:57:57;;;;;;;1.65;1.40;;;;;;;-148.56;100.00;61375.16;5006993;28;20036;-28
2021/11/25 03:00:22;;;;;;;2.58;1.90;;;;;;;-148.56;100.00;61375.16;5004035;28;20033;-29
2021/11/25 03:02:55;;;;;;;2.53;1.90;;;;;;;-148.56;100.00;61375.16;5006880;28;20469;-33
2021/11/25 03:05:21;;;;;;;2.20;1.90;;;;;;;-148.56;100.00;61375.16;5003836;28;20673;-32
2021/11/25 03:07:46;;;;;;;2.42;1.70;;;;;;;-148.56;100.00;61375.16;5003058;28;20033;-31
2021/11/25 03:10:11;;;;;;;2.50;1.90;;;;;;;-148.56;100.00;61375.16;5002097;28;20030;-29
2021/11/25 03:12:37;;;;;;;2.42;1.80;;;;;;;-148.56;100.00;61375.16;5005233;28;20033;-31
2021/11/25 03:15:03;;;;;;;4.45;1.65;;;;;;;-148.56;100.00;61375.16;5021135;28;20025;-33
2021/11/25 03:17:28;;;;;;;2.47;1.45;;;;;;;-148.56;100.00;61375.16;5004385;28;20033;-31
2021/11/25 03:19:54;;;;;;;4.45;1.52;;;;;;;-148.56;100.00;61375.16;5004146;28;20025;-30
2021/11/25 03:22:19;;;;;;;3.05;1.60;;;;;;;-148.56;100.00;61375.16;5002119;28;20076;-32
2021/11/25 03:24:44;;;;;;;2.70;1.70;;;;;;;-148.56;100.00;61375.16;4999798;28;20076;-32
2021/11/25 03:27:10;;;;;;;1.95;1.63;;;;;;;-148.56;100.00;61375.16;5002107;28;20037;-32
2021/11/25 03:29:35;;;;;;;2.20;1.67;;;;;;;-148.56;100.00;61375.16;5005956;28;20038;-31
2021/11/25 03:32:01;;;;;;;3.50;1.63;;;;;;;-148.56;100.00;61375.16;5003690;28;20079;-33
2021/11/25 03:34:26;;;;;;;2.47;1.75;;;;;;;-148.56;100.00;61375.16;5000675;28;20526;-29
2021/11/25 03:36:51;;;;;;;2.63;1.60;;;;;;;-148.56;100.00;61375.16;5009468;28;20361;-32
2021/11/25 03:39:17;;;;;;;2.92;1.63;;;;;;;-148.56;100.00;61375.16;5009229;28;20033;-34
2021/11/25 03:41:42;;;;;;;2.08;1.45;;;;;;;-148.56;100.00;61375.16;5008429;28;20040;-31
2021/11/25 03:44:08;;;;;;;1.83;1.50;;;;;;;-148.56;100.00;61375.16;5011789;28;20510;-30
2021/11/25 03:46:35;;;;;;;2.53;1.52;;;;;;;-148.56;100.00;61375.16;5008187;28;20030;-30
2021/11/25 03:49:01;;;;;;;2.15;1.70;;;;;;;-148.56;100.00;61375.16;5010965;28;20064;-30
2021/11/25 03:51:26;;;;;;;1.33;1.23;;;;;;;-148.56;100.00;61375.16;5007791;28;20033;-31
2021/11/25 03:53:51;;;;;;;2.20;1.40;;;;;;;-148.56;100.00;61375.16;5008036;28;20037;-31
2021/11/25 03:56:17;;;;;;;2.80;1.45;;;;;;;-148.56;100.00;61375.16;5009692;28;20074;-32
2021/11/25 03:58:43;;;;;;;1.92;1.40;;;;;;;-148.56;100.00;61375.16;5011634;28;20025;-30
2021/11/25 04:01:08;;;;;;;2.25;1.52;;;;;;;-148.56;100.00;61375.16;5008945;28;20043;-31
2021/11/25 04:03:34;;;;;;;2.38;1.60;;;;;;;-148.56;100.00;61375.16;5009957;28;20712;-30
2021/11/25 04:05:59;;;;;;;1.73;1.50;;;;;;;-148.56;100.00;61375.16;5008597;28;20033;-28
2021/11/25 04:08:25;;;;;;;1.80;1.40;;;;;;;-148.56;100.00;61375.16;5007906;28;20034;-31
2021/11/25 04:10:50;;;;;;;2.13;1.50;;;;;;;-148.56;100.00;61375.16;5009091;28;20026;-32
2021/11/25 04:13:15;;;;;;;2.33;1.50;;;;;;;-148.56;100.00;61375.16;4992538;28;20057;-29
2021/11/25 04:15:41;;;;;;;1.95;1.38;;;;;;;-148.56;100.00;61375.16;5014624;28;20075;-30
2021/11/25 04:18:06;;;;;;;2.40;1.30;;;;;;;-148.56;100.00;61375.16;5002777;28;20116;-30
2021/11/25 04:20:33;;;;;;;2.22;1.60;;;;;;;-148.56;100.00;61375.16;5009428;28;21846;-29
2021/11/25 04:22:59;;;;;;;4.28;1.40;;;;;;;-148.56;100.00;61375.16;5006369;28;20045;-33
2021/11/25 04:25:24;;;;;;;2.17;1.40;;;;;;;-148.56;100.00;61375.16;5002093;28;20078;-31
2021/11/25 04:27:50;;;;;;;2.42;1.52;;;;;;;-148.56;100.00;61375.16;5006000;28;20037;-30
2021/11/25 04:35:32;;;;;;;2.28;1.38;;;;;;;-148.56;100.00;61375.16;5011609;28;20353;-30
2021/11/25 04:38:06;;;;;;;2.20;1.42;;;;;;;-148.56;100.00;61375.16;5003952;28;20033;-31
2021/11/25 04:40:35;;;;;;;1.52;1.42;;;;;;;-148.56;100.00;61375.16;5009429;28;20032;-31
2021/11/25 04:43:01;;;;;;;1.67;1.40;;;;;;;-148.56;100.00;61375.16;5002291;28;20113;-30
2021/11/25 04:45:27;;;;;;;1.85;1.50;;;;;;;-148.56;100.00;61375.16;4978673;28;20497;-33
2021/11/25 04:47:52;;;;;;;1.85;1.50;;;;;;;-148.56;100.00;61375.16;5008050;28;20075;-32
2021/11/25 04:50:18;;;;;;;1.92;1.55;;;;;;;-148.56;100.00;61375.16;5022588;28;20033;-31
2021/11/25 04:52:43;;;;;;;1.73;1.42;;;;;;;-148.56;100.00;61375.16;4989948;28;20045;-30
2021/11/25 04:55:08;;;;;;;1.50;1.40;;;;;;;-148.56;100.00;61375.16;4997109;28;20980;-30
2021/11/25 04:57:34;;;;;;;3.70;1.70;;;;;;;-148.56;100.00;61375.16;5005856;28;20026;-33
2021/11/25 04:59:59;;;;;;;1.50;1.30;;;;;;;-148.56;100.00;61375.16;4989963;28;20022;-28
2021/11/25 05:02:25;;;;;;;3.60;1.38;;;;;;;-148.56;100.00;61375.16;5006125;28;20126;-31
2021/11/25 05:04:50;;;;;;;1.77;1.15;;;;;;;-148.56;100.00;61375.16;5008076;28;20025;-32
2021/11/25 05:07:16;;;;;;;1.50;1.17;;;;;;;-148.56;100.00;61375.16;5005235;28;20509;-32
2021/11/25 05:09:41;;;;;;;1.65;1.45;;;;;;;-148.56;100.00;61375.16;4974948;28;20033;-36
2021/11/25 05:12:07;;;;;;;1.80;1.50;;;;;;;-148.56;100.00;61375.16;5009681;28;20032;-33
2021/11/25 05:14:32;;;;;;;1.50;1.00;;;;;;;-148.56;100.00;61375.16;4990407;28;20180;-31
2021/11/25 05:16:58;;;;;;;2.75;1.48;;;;;;;-148.56;100.00;61375.16;4998785;28;20040;-28
2021/11/25 05:19:23;;;;;;;2.67;1.40;;;;;;;-148.56;100.00;61375.16;5004150;28;20025;-32
2021/11/25 05:21:49;;;;;;;3.55;1.20;;;;;;;-148.56;100.00;61375.16;5002166;28;20037;-33
2021/11/25 05:24:17;;;;;;;2.45;1.25;;;;;;;-148.56;100.00;61375.16;5007150;28;20033;-31
2021/11/25 05:26:43;;;;;;;1.77;1.20;;;;;;;-148.56;100.00;61375.16;5003580;28;20118;-31
2021/11/25 05:29:08;;;;;;;2.50;1.35;;;;;;;-148.56;100.00;61375.16;5003222;28;20036;-31
2021/11/25 05:31:34;;;;;;;3.05;1.38;;;;;;;-148.56;100.00;61375.16;4994974;28;20387;-31
2021/11/25 05:33:59;;;;;;;1.30;1.20;;;;;;;-148.56;100.00;61375.16;5016020;28;20034;-29
2021/11/25 05:36:24;;;;;;;1.55;1.30;;;;;;;-148.56;100.00;61375.16;5004106;28;20033;-30
2021/11/25 05:38:50;;;;;;;1.20;1.10;;;;;;;-148.56;100.00;61375.16;4993215;28;20461;-30
2021/11/25 05:41:15;;;;;;;1.20;1.10;;;;;;;-148.56;100.00;61375.16;5001199;28;20053;-30
2021/11/25 05:43:41;;;;;;;1.70;1.25;;;;;;;-148.56;100.00;61375.16;5003388;28;20033;-30
2021/11/25 05:46:06;;;;;;;2.00;1.40;;;;;;;-148.56;100.00;61375.16;4991911;28;20029;-32
2021/11/25 05:48:32;;;;;;;1.77;1.30;;;;;;;-148.56;100.00;61375.16;4987646;28;20560;-31
2021/11/25 05:50:57;;;;;;;2.78;1.33;;;;;;;-148.56;100.00;61375.16;5004103;28;20696;-28
2021/11/25 05:53:23;;;;;;;1.40;1.13;;;;;;;-148.56;100.00;61375.16;5019724;28;20037;-34
2021/11/25 05:55:48;;;;;;;3.67;2.83;;;;;;;-148.56;100.00;61375.16;5005373;28;20032;-31
2021/11/25 05:58:14;;;;;;;3.75;2.50;;;;;;;-148.56;100.00;61375.16;4975801;28;20817;-30
2021/11/25 06:00:39;;;;;;;2.28;1.40;;;;;;;-148.56;100.00;61375.16;5002525;28;20119;-29
2021/11/25 06:03:05;;;;;;;1.40;1.27;;;;;;;-148.56;100.00;61375.16;4996169;28;20022;-31
2021/11/25 06:05:30;;;;;;;3.10;1.40;;;;;;;-148.56;100.00;61375.16;4996801;28;20034;-30
2021/11/25 06:07:59;;;;;;;2.03;1.42;;;;;;;-148.56;100.00;61375.16;5018706;28;20506;-32
2021/11/25 06:10:24;;;;;;;1.20;1.10;;;;;;;-148.56;100.00;61375.16;5003441;28;20029;-33
2021/11/25 06:12:50;;;;;;;14.57;3.38;;;;;;;-148.56;100.00;61375.16;5004747;28;20189;-32
2021/11/25 06:15:15;;;;;;;5.53;2.13;;;;;;;-148.56;100.00;61375.16;5006169;28;20107;-28
2021/11/25 06:17:41;;;;;;;2.33;1.52;;;;;;;-148.56;100.00;61375.16;5006433;28;20029;-32
2021/11/25 06:20:13;;;;;;;3.70;1.40;;;;;;;-148.56;100.00;61375.16;5003915;28;20492;-32
2021/11/25 06:22:39;;;;;;;;;;;;;;;-148.56;100.00;61375.16;5006929;28;20033;-31
2021/11/25 06:25:05;;;;;;;10.05;2.42;;;;;;;-148.56;100.00;61375.16;4995265;28;20610;-31
2021/11/25 06:27:30;;;;;;;1.55;1.40;;;;;;;-148.56;100.00;61375.16;4999289;28;20044;-30
2021/11/25 06:29:55;;;;;;;1.63;1.42;;;;;;;-148.56;100.00;61375.16;5007066;28;20052;-30
2021/11/25 06:32:21;;;;;;;1.83;1.42;;;;;;;-148.56;100.00;61375.16;5004331;28;20025;-32
2021/11/25 06:34:46;;;;;;;1.85;1.52;;;;;;;-148.56;100.00;61375.16;5002954;28;20449;-31
2021/11/25 06:37:12;;;;;;;3.00;1.60;;;;;;;-148.56;100.00;61375.16;5003254;28;20040;-31
2021/11/25 06:39:37;;;;;;;1.77;1.35;;;;;;;-148.56;100.00;61375.16;4999906;28;20037;-31
2021/11/25 06:42:03;;;;;;;1.73;1.23;;;;;;;-148.56;100.00;61375.16;5004994;28;20100;-32
2021/11/25 06:44:28;;;;;;;1.60;1.40;;;;;;;-148.56;100.00;61375.16;5000499;28;20038;-31
2021/11/25 06:46:53;;;;;;;2.17;1.40;;;;;;;-148.56;100.00;61375.16;5000241;28;20536;-31
2021/11/25 06:49:19;;;;;;;4.22;1.23;;;;;;;-148.56;100.00;61375.16;5001929;28;20026;-31
2021/11/25 06:51:44;;;;;;;1.20;1.10;;;;;;;-148.56;100.00;61375.16;5005582;28;20033;-34
2021/11/25 06:54:10;;;;;;;1.27;1.17;;;;;;;-148.56;100.00;61375.16;5003415;28;20480;-32
2021/11/25 06:56:35;;;;;;;2.83;1.67;;;;;;;-148.56;100.00;61375.16;5001647;28;20041;-29
2021/11/25 06:59:01;;;;;;;1.98;1.58;;;;;;;-148.56;100.00;61375.16;5002903;28;20524;-35
2021/11/25 07:01:26;;;;;;;3.55;1.58;;;;;;;-148.56;100.00;61375.16;5002879;28;20026;-30
2021/11/25 07:03:52;;;;;;;2.33;1.83;;;;;;;-148.56;100.00;61375.16;5005391;28;20026;-30
2021/11/25 07:06:17;;;;;;;2.25;1.85;;;;;;;-148.56;100.00;61375.16;5010267;28;20022;-30
2021/11/25 07:08:42;;;;;;;2.17;1.70;;;;;;;-148.56;100.00;61375.16;5005839;28;20026;-32
2021/11/25 07:11:08;;;;;;;1.70;1.60;;;;;;;-148.56;100.00;61375.16;5005592;28;20021;-35
2021/11/25 07:13:33;;;;;;;2.78;1.90;;;;;;;-148.56;100.00;61375.16;5022579;28;20496;-32
2021/11/25 07:15:59;;;;;;;1.92;1.70;;;;;;;-148.56;100.00;61375.16;5010825;28;20532;-32
2021/11/25 07:18:24;;;;;;;2.83;1.70;;;;;;;-148.56;100.00;61375.16;5007696;28;20498;-33
2021/11/25 07:20:50;;;;;;;3.75;1.90;;;;;;;-148.56;100.00;61375.16;5005317;28;20188;-28
2021/11/25 07:23:15;;;;;;;5.63;2.33;;;;;;;-148.56;100.00;61375.16;5009744;28;20033;-31
2021/11/25 07:25:41;;;;;;;5.53;2.17;;;;;;;-148.56;100.00;61375.16;5000386;28;20037;-33
2021/11/25 07:28:06;;;;;;;9.07;3.40;;;;;;;-148.56;100.00;61375.16;4996745;28;20041;-30
2021/11/25 07:30:31;;;;;;;4.80;3.00;;;;;;;-148.56;100.00;61375.16;5003633;28;20061;-32
2021/11/25 07:32:57;;;;;;;14.70;2.80;;;;;;;-148.56;100.00;61375.16;4981577;28;20308;-30
2021/11/25 07:35:23;;;;;;;9.60;3.42;;;;;;;-148.56;100.00;61375.16;5015159;28;20370;-29
2021/11/25 07:37:51;;;;;;;4.90;2.80;;;;;;;-148.56;100.00;61375.16;5019738;28;20498;-31
2021/11/25 07:40:17;;;;;;;10.05;2.40;;;;;;;-148.56;100.00;61375.16;5003362;28;20093;-32
2021/11/25 07:42:44;;;;;;;6.15;2.67;;;;;;;-148.56;100.00;61375.16;4997323;28;20178;-32
2021/11/25 07:45:09;;;;;;;7.03;2.40;;;;;;;-148.56;100.00;61375.16;5002567;28;20100;-35
2021/11/25 07:47:37;;;;;;;10.60;6.50;;;;;;;-148.56;100.00;61375.16;5007041;28;20029;-34
2021/11/25 07:50:10;;;;;;;14.57;8.52;;;;;;;-148.56;100.00;61375.16;5003394;28;20029;-36
2021/11/25 07:52:36;;;;;;;12.13;7.63;;;;;;;-148.56;100.00;61375.16;5001215;28;20041;-28
2021/11/25 07:55:02;;;;;;;9.68;6.80;;;;;;;-148.56;100.00;61375.16;5005813;28;20018;-29
2021/11/25 07:57:28;;;;;;;9.95;7.53;;;;;;;-148.56;100.00;61375.16;5003884;28;20033;-30
2021/11/25 07:59:53;;;;;;;12.45;7.05;;;;;;;-148.56;100.00;61375.16;5003548;28;20037;-31
2021/11/25 08:02:20;;;;;;;14.10;8.10;;;;;;;-148.56;100.00;61375.16;4997788;28;20045;-28
2021/11/25 08:04:46;;;;;;;9.35;7.35;;;;;;;-148.56;100.00;61375.16;4999430;28;20026;-34
2021/11/25 08:07:12;;;;;;;7.63;6.65;;;;;;;-148.56;100.00;61375.16;4999358;28;20037;-30
2021/11/25 08:09:37;;;;;;;9.93;6.30;;;;;;;-148.56;100.00;61375.16;4999769;28;20041;-31
2021/11/25 08:12:03;;;;;;;9.15;6.45;;;;;;;-148.56;100.00;61375.16;5001048;28;20057;-32
2021/11/25 08:14:28;;;;;;;9.57;7.28;;;;;;;-148.56;100.00;61375.16;5003587;28;20098;-32
2021/11/25 08:16:58;;;;;;;8.57;7.07;;;;;;;-148.56;100.00;61375.16;4998799;28;20099;-32
2021/11/25 08:19:23;;;;;;;9.02;6.57;;;;;;;-148.56;100.00;61375.16;5002044;28;20033;-30
2021/11/25 08:21:49;;;;;;;7.60;4.25;;;;;;;-148.56;100.00;61375.16;5000357;28;20029;-30
2021/11/25 08:24:14;;;;;;;6.65;3.80;;;;;;;-148.56;100.00;61375.16;5008091;28;20038;-34
2021/11/25 08:26:40;;;;;;;7.43;3.67;;;;;;;-148.56;100.00;61375.16;5004495;28;20932;-30
2021/11/25 08:29:05;;;;;;;6.55;3.13;;;;;;;-148.56;100.00;61375.16;5007268;28;20278;-30
2021/11/25 08:31:30;;;;;;;7.20;3.40;;;;;;;-148.56;100.00;61375.16;5001267;28;20064;-30
2021/11/25 08:33:56;;;;;;;7.32;3.15;;;;;;;-148.56;100.00;61375.16;5001198;28;20025;-29
2021/11/25 08:36:21;;;;;;;4.90;3.03;;;;;;;-148.56;100.00;61375.16;4996949;28;20523;-30
2021/11/25 08:38:47;;;;;;;8.13;3.03;;;;;;;-148.56;100.00;61375.16;4998890;28;20801;-34
2021/11/25 08:41:12;;;;;;;5.65;2.70;;;;;;;-148.56;100.00;61375.16;5003299;28;20041;-30
2021/11/25 08:43:37;;;;;;;5.95;2.55;;;;;;;-148.56;100.00;61375.16;5001710;28;20401;-28
2021/11/25 08:46:03;;;;;;;6.28;2.80;;;;;;;-148.56;100.00;61375.16;5002512;28;20457;-32
2021/11/25 08:48:28;;;;;;;5.78;2.58;;;;;;;-148.56;100.00;61375.16;5001555;28;20118;-34
2021/11/25 08:50:54;;;;;;;5.43;2.40;;;;;;;-148.56;100.00;61375.16;4998035;28;20037;-30
2021/11/25 08:53:22;;;;;;;8.43;2.60;;;;;;;-148.56;100.00;61375.16;4996804;28;20040;-29
2021/11/25 08:55:48;;;;;;;4.20;2.60;;;;;;;-148.56;100.00;61375.16;4979843;28;20036;-33
2021/11/25 08:58:14;;;;;;;5.30;2.70;;;;;;;-148.56;100.00;61375.16;5000864;28;20475;-30
2021/11/25 09:00:39;;;;;;;4.72;2.65;;;;;;;-148.56;100.00;61375.16;4998614;28;20075;-29
2021/11/25 09:03:04;;;;;;;5.45;2.30;;;;;;;-148.56;100.00;61375.16;4998684;28;20032;-30
2021/11/25 09:05:31;;;;;;;5.32;2.63;;;;;;;-148.56;100.00;61375.16;5003142;28;20036;-32
2021/11/25 09:07:57;;;;;;;4.63;2.72;;;;;;;-148.56;100.00;61375.16;5002691;28;20036;-32
2021/11/25 09:10:22;;;;;;;5.28;3.00;;;;;;;-148.56;100.00;61375.16;5001987;28;20029;-29
2021/11/25 09:12:48;;;;;;;11.68;2.88;;;;;;;-148.56;100.00;61375.16;5002369;28;20047;-29
2021/11/25 09:15:14;;;;;;;25.13;14.23;;;;;;;-148.56;100.00;61375.16;5006179;28;20055;-32
2021/11/25 09:17:39;;;;;;;23.95;17.02;;;;;;;-148.56;100.00;61375.16;5008039;28;20453;-29
2021/11/25 09:20:05;;;;;;;26.70;16.98;;;;;;;-148.56;100.00;61375.16;5004836;28;20040;-29
2021/11/25 09:22:31;;;;;;;17.95;14.60;;;;;;;-148.56;100.00;61375.16;5003971;28;20484;-32
2021/11/25 09:24:56;;;;;;;15.63;12.10;;;;;;;-148.56;100.00;61375.16;4996381;28;20053;-34
2021/11/25 09:27:22;;;;;;;15.02;11.05;;;;;;;-148.56;100.00;61375.16;4999851;28;20138;-34
2021/11/25 09:29:47;;;;;;;14.48;9.10;;;;;;;-148.56;100.00;61375.16;4996271;28;20042;-33
2021/11/25 09:32:13;;;;;;;12.02;8.30;;;;;;;-148.56;100.00;61375.16;5003272;28;20103;-30
2021/11/25 09:34:38;;;;;;;12.80;7.75;;;;;;;-148.56;100.00;61375.16;4996920;28;20069;-33
2021/11/25 09:37:04;;;;;;;13.02;6.28;;;;;;;-148.56;100.00;61375.16;4999612;28;20029;-33
2021/11/25 09:39:30;;;;;;;18.55;5.60;;;;;;;-148.56;100.00;61375.16;4998777;28;20053;-30
2021/11/25 09:41:56;;;;;;;13.13;5.68;;;;;;;-148.56;100.00;61375.16;5004906;28;20506;-28
2021/11/25 09:44:21;;;;;;;10.40;5.55;;;;;;;-148.56;100.00;61375.16;5005060;28;20405;-29
2021/11/25 09:46:50;;;;;;;6.63;4.80;;;;;;;-148.56;100.00;61375.16;5003270;28;20060;-30
2021/11/25 09:49:15;;;;;;;8.20;4.70;;;;;;;-148.56;100.00;61375.16;5019518;28;21886;-29
2021/11/25 09:51:41;;;;;;;9.38;4.57;;;;;;;-148.56;100.00;61375.16;5003469;28;20075;-32
2021/11/25 09:54:06;;;;;;;8.38;3.97;;;;;;;-148.56;100.00;61375.16;5008603;28;20025;-35
2021/11/25 09:56:32;;;;;;;5.90;3.55;;;;;;;-148.56;100.00;61375.16;4998881;28;20014;-33
2021/11/25 09:58:57;;;;;;;13.27;3.80;;;;;;;-148.56;100.00;61375.16;5003202;28;20025;-31
2021/11/25 10:01:24;;;;;;;6.70;3.55;;;;;;;-148.56;100.00;61375.16;5003210;28;20018;-29
2021/11/25 10:03:50;;;;;;;5.47;3.55;;;;;;;-148.56;100.00;61375.16;5002459;28;20033;-29
2021/11/25 10:06:19;;;;;;;4.70;3.35;;;;;;;-148.56;100.00;61375.16;5000594;28;20038;-33
2021/11/25 10:08:47;;;;;;;7.57;3.20;;;;;;;-148.56;100.00;61375.16;4999974;28;20051;-32
2021/11/25 10:11:24;;;;;;;5.25;3.22;;;;;;;-148.56;100.00;61375.16;5004830;28;20033;-32
2021/11/25 10:13:54;;;;;;;13.40;3.33;;;;;;;-148.56;100.00;61375.16;4998975;28;20074;-36
2021/11/25 10:16:28;;;;;;;10.82;3.63;;;;;;;-148.56;100.00;61375.16;5000494;28;20026;-31
2021/11/25 10:18:54;;;;;;;10.60;3.92;;;;;;;-148.56;100.00;61375.16;5002581;28;21372;-31
2021/11/25 10:21:23;;;;;;;12.25;3.67;;;;;;;-148.56;100.00;61375.16;5003169;28;20784;-31
2021/11/25 10:23:50;;;;;;;9.65;3.67;;;;;;;-148.56;100.00;61375.16;5007576;28;20036;-31
2021/11/25 10:26:23;;;;;;;7.47;3.53;;;;;;;-148.56;100.00;61375.16;5005603;28;20076;-32
2021/11/25 10:28:52;;;;;;;9.38;3.42;;;;;;;-148.56;100.00;61375.16;4989934;28;20021;-35
2021/11/25 10:31:31;;;;;;;7.40;3.50;;;;;;;-148.56;100.00;61375.16;5006470;28;20841;-29
2021/11/25 10:34:08;;;;;;;7.55;3.38;;;;;;;-148.56;100.00;61375.16;5007890;28;20818;-35
2021/11/25 10:42:20;;;;;;;8.27;3.50;;;;;;;-148.56;100.00;61375.16;5011682;28;20047;-32
2021/11/25 10:44:47;;;;;;;9.23;3.13;;;;;;;-148.56;100.00;61375.16;5009999;28;20045;-34
2021/11/25 10:47:14;;;;;;;5.95;2.95;;;;;;;-148.56;100.00;61375.16;5017971;28;20395;-32
2021/11/25 10:49:41;;;;;;;7.07;2.83;;;;;;;-148.56;100.00;61375.16;5011929;28;20049;-29
2021/11/25 10:52:11;;;;;;;6.95;3.10;;;;;;;-148.56;100.00;61375.16;5010433;28;20076;-34
2021/11/25 10:54:48;;;;;;;7.88;3.20;;;;;;;-148.56;100.00;61375.16;5010513;28;20036;-32
2021/11/25 10:57:14;;;;;;;4.95;2.92;;;;;;;-148.56;100.00;61375.16;5010273;28;20032;-33
2021/11/25 10:59:42;;;;;;;5.93;2.80;;;;;;;-148.56;100.00;61375.16;5013265;28;20754;-29
2021/11/25 11:02:31;;;;;;;3.47;2.53;;;;;;;-148.56;100.00;61375.16;5008792;28;20871;-31
2021/11/25 11:05:03;;;;;;;7.40;2.80;;;;;;;-148.56;100.00;61375.16;5010117;28;20574;-29
2021/11/25 11:07:36;;;;;;;4.95;2.72;;;;;;;-148.56;100.00;61375.16;5007263;28;20037;-31
2021/11/25 11:10:22;;;;;;;3.22;2.53;;;;;;;-148.56;100.00;61375.16;5010867;28;20043;-33
2021/11/25 11:13:33;;;;;;;8.88;2.85;;;;;;;-148.56;100.00;61375.16;5022880;28;20038;-31
2021/11/25 11:20:47;;;;;;;5.15;2.38;;;;;;;-148.56;100.00;61375.16;5003707;28;20028;-30